sensor_id;sensor_type;location;lat;lon;timestamp;temperature;humidity
19522;DHT22;9905;52.126;5.596;2022-11-13T00:00:38;7.20;99.90
19522;DHT22;9905;52.126;5.596;2022-11-13T00:03:04;7.10;99.90
19522;DHT22;9905;52.126;5.596;2022-11-13T00:05:31;7.10;99.90
19522;DHT22;9905;52.126;5.596;2022-11-13T00:07:58;7.10;99.90
19522;DHT22;9905;52.126;5.596;2022-11-13T00:10:25;7.10;99.90
19522;DHT22;9905;52.126;5.596;2022-11-13T00:12:52;7.10;99.90
19522;DHT22;9905;52.126;5.596;2022-11-13T00:15:20;7.10;99.90
19522;DHT22;9905;52.126;5.596;2022-11-13T00:17:48;7.10;99.90
19522;DHT22;9905;52.126;5.596;2022-11-13T00:20:15;7.10;99.90
19522;DHT22;9905;52.126;5.596;2022-11-13T00:22:42;7.10;99.90
19522;DHT22;9905;52.126;5.596;2022-11-13T00:25:09;7.00;99.90
19522;DHT22;9905;52.126;5.596;2022-11-13T00:27:35;7.00;99.90
19522;DHT22;9905;52.126;5.596;2022-11-13T00:30:03;7.00;99.90
19522;DHT22;9905;52.126;5.596;2022-11-13T00:32:30;7.00;99.90
19522;DHT22;9905;52.126;5.596;2022-11-13T00:34:58;6.90;99.90
19522;DHT22;9905;52.126;5.596;2022-11-13T00:37:24;6.90;99.90
19522;DHT22;9905;52.126;5.596;2022-11-13T00:39:51;6.90;99.90
19522;DHT22;9905;52.126;5.596;2022-11-13T00:42:18;6.90;99.90
19522;DHT22;9905;52.126;5.596;2022-11-13T00:44:44;6.80;99.90
19522;DHT22;9905;52.126;5.596;2022-11-13T00:47:11;6.80;99.90
19522;DHT22;9905;52.126;5.596;2022-11-13T00:49:38;6.80;99.90
19522;DHT22;9905;52.126;5.596;2022-11-13T00:52:06;6.80;99.90
19522;DHT22;9905;52.126;5.596;2022-11-13T00:54:33;6.80;99.90
19522;DHT22;9905;52.126;5.596;2022-11-13T00:56:59;6.70;99.90
19522;DHT22;9905;52.126;5.596;2022-11-13T00:59:26;6.70;99.90
19522;DHT22;9905;52.126;5.596;2022-11-13T01:01:53;6.70;99.90
19522;DHT22;9905;52.126;5.596;2022-11-13T01:04:19;6.70;99.90
19522;DHT22;9905;52.126;5.596;2022-11-13T01:06:46;6.70;99.90
19522;DHT22;9905;52.126;5.596;2022-11-13T01:09:14;6.70;99.90
19522;DHT22;9905;52.126;5.596;2022-11-13T01:11:41;6.70;99.90
19522;DHT22;9905;52.126;5.596;2022-11-13T01:14:08;6.70;99.90
19522;DHT22;9905;52.126;5.596;2022-11-13T01:16:34;6.70;99.90
19522;DHT22;9905;52.126;5.596;2022-11-13T01:19:01;6.70;99.90
19522;DHT22;9905;52.126;5.596;2022-11-13T01:21:28;6.60;99.90
19522;DHT22;9905;52.126;5.596;2022-11-13T01:23:55;6.60;99.90
19522;DHT22;9905;52.126;5.596;2022-11-13T01:26:25;6.60;99.90
19522;DHT22;9905;52.126;5.596;2022-11-13T01:28:52;6.60;99.90
19522;DHT22;9905;52.126;5.596;2022-11-13T01:31:22;6.60;99.90
19522;DHT22;9905;52.126;5.596;2022-11-13T01:33:49;6.50;99.90
19522;DHT22;9905;52.126;5.596;2022-11-13T01:36:17;6.50;99.90
19522;DHT22;9905;52.126;5.596;2022-11-13T01:38:45;6.50;99.90
19522;DHT22;9905;52.126;5.596;2022-11-13T01:41:16;6.50;99.90
19522;DHT22;9905;52.126;5.596;2022-11-13T01:43:44;6.40;99.90
19522;DHT22;9905;52.126;5.596;2022-11-13T01:46:29;6.40;99.90
19522;DHT22;9905;52.126;5.596;2022-11-13T01:49:01;6.40;99.90
19522;DHT22;9905;52.126;5.596;2022-11-13T01:51:32;6.40;99.90
19522;DHT22;9905;52.126;5.596;2022-11-13T01:54:01;6.40;99.90
19522;DHT22;9905;52.126;5.596;2022-11-13T01:56:29;6.30;99.90
19522;DHT22;9905;52.126;5.596;2022-11-13T01:59:03;6.30;99.90
19522;DHT22;9905;52.126;5.596;2022-11-13T02:01:31;6.30;99.90
19522;DHT22;9905;52.126;5.596;2022-11-13T02:03:58;6.20;99.90
19522;DHT22;9905;52.126;5.596;2022-11-13T02:06:27;6.20;99.90
19522;DHT22;9905;52.126;5.596;2022-11-13T02:08:55;6.20;99.90
19522;DHT22;9905;52.126;5.596;2022-11-13T02:11:22;6.20;99.90
19522;DHT22;9905;52.126;5.596;2022-11-13T02:13:49;6.20;99.90
19522;DHT22;9905;52.126;5.596;2022-11-13T02:16:18;6.10;99.90
19522;DHT22;9905;52.126;5.596;2022-11-13T02:18:46;6.10;99.90
19522;DHT22;9905;52.126;5.596;2022-11-13T02:21:21;6.10;99.90
19522;DHT22;9905;52.126;5.596;2022-11-13T02:23:57;6.10;99.90
19522;DHT22;9905;52.126;5.596;2022-11-13T02:26:28;6.10;99.90
19522;DHT22;9905;52.126;5.596;2022-11-13T02:28:56;6.10;99.90
19522;DHT22;9905;52.126;5.596;2022-11-13T02:31:23;6.10;99.90
19522;DHT22;9905;52.126;5.596;2022-11-13T02:33:50;6.10;99.90
19522;DHT22;9905;52.126;5.596;2022-11-13T02:36:17;6.10;99.90
19522;DHT22;9905;52.126;5.596;2022-11-13T02:38:46;6.20;99.90
19522;DHT22;9905;52.126;5.596;2022-11-13T02:41:13;6.10;99.90
19522;DHT22;9905;52.126;5.596;2022-11-13T02:43:41;6.10;99.90
19522;DHT22;9905;52.126;5.596;2022-11-13T02:46:08;6.10;99.90
19522;DHT22;9905;52.126;5.596;2022-11-13T02:48:34;6.10;99.90
19522;DHT22;9905;52.126;5.596;2022-11-13T02:51:01;6.00;99.90
19522;DHT22;9905;52.126;5.596;2022-11-13T02:53:28;6.00;99.90
19522;DHT22;9905;52.126;5.596;2022-11-13T02:55:54;5.90;99.90
19522;DHT22;9905;52.126;5.596;2022-11-13T02:58:21;5.90;99.90
19522;DHT22;9905;52.126;5.596;2022-11-13T03:00:49;5.90;99.90
19522;DHT22;9905;52.126;5.596;2022-11-13T03:03:16;5.80;99.90
19522;DHT22;9905;52.126;5.596;2022-11-13T03:05:47;5.80;99.90
19522;DHT22;9905;52.126;5.596;2022-11-13T03:08:14;5.80;99.90
19522;DHT22;9905;52.126;5.596;2022-11-13T03:10:41;5.80;99.90
19522;DHT22;9905;52.126;5.596;2022-11-13T03:13:07;5.80;99.90
19522;DHT22;9905;52.126;5.596;2022-11-13T03:15:34;5.80;99.90
19522;DHT22;9905;52.126;5.596;2022-11-13T03:18:03;5.80;99.90
19522;DHT22;9905;52.126;5.596;2022-11-13T03:20:30;5.70;99.90
19522;DHT22;9905;52.126;5.596;2022-11-13T03:22:57;5.80;99.90
19522;DHT22;9905;52.126;5.596;2022-11-13T03:25:23;5.80;99.90
19522;DHT22;9905;52.126;5.596;2022-11-13T03:27:50;5.90;99.90
19522;DHT22;9905;52.126;5.596;2022-11-13T03:30:17;5.90;99.90
19522;DHT22;9905;52.126;5.596;2022-11-13T03:32:44;5.90;99.90
19522;DHT22;9905;52.126;5.596;2022-11-13T03:35:12;5.90;99.90
19522;DHT22;9905;52.126;5.596;2022-11-13T03:37:39;5.90;99.90
19522;DHT22;9905;52.126;5.596;2022-11-13T03:40:07;5.90;99.90
19522;DHT22;9905;52.126;5.596;2022-11-13T03:42:33;5.90;99.90
19522;DHT22;9905;52.126;5.596;2022-11-13T03:45:00;5.90;99.90
19522;DHT22;9905;52.126;5.596;2022-11-13T03:47:27;5.90;99.90
19522;DHT22;9905;52.126;5.596;2022-11-13T03:49:54;5.80;99.90
19522;DHT22;9905;52.126;5.596;2022-11-13T03:52:22;5.80;99.90
19522;DHT22;9905;52.126;5.596;2022-11-13T03:54:48;5.80;99.90
19522;DHT22;9905;52.126;5.596;2022-11-13T03:57:15;5.80;99.90
19522;DHT22;9905;52.126;5.596;2022-11-13T03:59:42;5.80;99.90
19522;DHT22;9905;52.126;5.596;2022-11-13T04:02:09;5.80;99.90
19522;DHT22;9905;52.126;5.596;2022-11-13T04:04:35;5.70;99.90
19522;DHT22;9905;52.126;5.596;2022-11-13T04:07:02;5.70;99.90
19522;DHT22;9905;52.126;5.596;2022-11-13T04:09:30;5.70;99.90
19522;DHT22;9905;52.126;5.596;2022-11-13T04:11:57;5.60;99.90
19522;DHT22;9905;52.126;5.596;2022-11-13T04:14:23;5.60;99.90
19522;DHT22;9905;52.126;5.596;2022-11-13T04:16:50;5.60;99.90
19522;DHT22;9905;52.126;5.596;2022-11-13T04:19:17;5.60;99.90
19522;DHT22;9905;52.126;5.596;2022-11-13T04:21:43;5.60;99.90
19522;DHT22;9905;52.126;5.596;2022-11-13T04:24:10;5.50;99.90
19522;DHT22;9905;52.126;5.596;2022-11-13T04:26:38;5.50;99.90
19522;DHT22;9905;52.126;5.596;2022-11-13T04:29:05;5.50;99.90
19522;DHT22;9905;52.126;5.596;2022-11-13T04:31:32;5.50;99.90
19522;DHT22;9905;52.126;5.596;2022-11-13T04:33:59;5.50;99.90
19522;DHT22;9905;52.126;5.596;2022-11-13T04:36:25;5.40;99.90
19522;DHT22;9905;52.126;5.596;2022-11-13T04:38:52;5.40;99.90
19522;DHT22;9905;52.126;5.596;2022-11-13T04:41:19;5.40;99.90
19522;DHT22;9905;52.126;5.596;2022-11-13T04:44:05;5.40;99.90
19522;DHT22;9905;52.126;5.596;2022-11-13T04:46:32;5.40;99.90
19522;DHT22;9905;52.126;5.596;2022-11-13T04:48:58;5.40;99.90
19522;DHT22;9905;52.126;5.596;2022-11-13T04:51:25;5.40;99.90
19522;DHT22;9905;52.126;5.596;2022-11-13T04:53:52;5.40;99.90
19522;DHT22;9905;52.126;5.596;2022-11-13T04:56:18;5.40;99.90
19522;DHT22;9905;52.126;5.596;2022-11-13T04:58:45;5.40;99.90
19522;DHT22;9905;52.126;5.596;2022-11-13T05:01:13;5.40;99.90
19522;DHT22;9905;52.126;5.596;2022-11-13T05:03:40;5.40;99.90
19522;DHT22;9905;52.126;5.596;2022-11-13T05:06:08;5.30;99.90
19522;DHT22;9905;52.126;5.596;2022-11-13T05:08:35;5.40;99.90
19522;DHT22;9905;52.126;5.596;2022-11-13T05:11:03;5.40;99.90
19522;DHT22;9905;52.126;5.596;2022-11-13T05:13:31;5.30;99.90
19522;DHT22;9905;52.126;5.596;2022-11-13T05:16:01;5.30;99.90
19522;DHT22;9905;52.126;5.596;2022-11-13T05:18:29;5.30;99.90
19522;DHT22;9905;52.126;5.596;2022-11-13T05:20:57;5.30;99.90
19522;DHT22;9905;52.126;5.596;2022-11-13T05:23:23;5.30;99.90
19522;DHT22;9905;52.126;5.596;2022-11-13T05:25:50;5.20;99.90
19522;DHT22;9905;52.126;5.596;2022-11-13T05:28:17;5.20;99.90
19522;DHT22;9905;52.126;5.596;2022-11-13T05:30:44;5.20;99.90
19522;DHT22;9905;52.126;5.596;2022-11-13T05:33:11;5.20;99.90
19522;DHT22;9905;52.126;5.596;2022-11-13T05:35:39;5.20;99.90
19522;DHT22;9905;52.126;5.596;2022-11-13T05:38:06;5.20;99.90
19522;DHT22;9905;52.126;5.596;2022-11-13T05:40:32;5.20;99.90
19522;DHT22;9905;52.126;5.596;2022-11-13T05:42:59;5.20;99.90
19522;DHT22;9905;52.126;5.596;2022-11-13T05:45:26;5.20;99.90
19522;DHT22;9905;52.126;5.596;2022-11-13T05:47:52;5.20;99.90
19522;DHT22;9905;52.126;5.596;2022-11-13T05:50:19;5.30;99.90
19522;DHT22;9905;52.126;5.596;2022-11-13T05:52:48;5.30;99.90
19522;DHT22;9905;52.126;5.596;2022-11-13T05:55:14;5.30;99.90
19522;DHT22;9905;52.126;5.596;2022-11-13T05:57:41;5.30;99.90
19522;DHT22;9905;52.126;5.596;2022-11-13T06:00:09;5.30;99.90
19522;DHT22;9905;52.126;5.596;2022-11-13T06:02:36;5.30;99.90
19522;DHT22;9905;52.126;5.596;2022-11-13T06:05:03;5.30;99.90
19522;DHT22;9905;52.126;5.596;2022-11-13T06:07:29;5.30;99.90
19522;DHT22;9905;52.126;5.596;2022-11-13T06:09:57;5.20;99.90
19522;DHT22;9905;52.126;5.596;2022-11-13T06:12:24;5.20;99.90
19522;DHT22;9905;52.126;5.596;2022-11-13T06:14:51;5.20;99.90
19522;DHT22;9905;52.126;5.596;2022-11-13T06:17:18;5.10;99.90
19522;DHT22;9905;52.126;5.596;2022-11-13T06:19:44;5.10;99.90
19522;DHT22;9905;52.126;5.596;2022-11-13T06:22:12;5.10;99.90
19522;DHT22;9905;52.126;5.596;2022-11-13T06:24:39;5.00;99.90
19522;DHT22;9905;52.126;5.596;2022-11-13T06:27:07;5.00;99.90
19522;DHT22;9905;52.126;5.596;2022-11-13T06:29:34;5.00;99.90
19522;DHT22;9905;52.126;5.596;2022-11-13T06:32:00;5.00;99.90
19522;DHT22;9905;52.126;5.596;2022-11-13T06:34:27;4.90;99.90
19522;DHT22;9905;52.126;5.596;2022-11-13T06:36:54;4.90;99.90
19522;DHT22;9905;52.126;5.596;2022-11-13T06:39:20;4.90;99.90
19522;DHT22;9905;52.126;5.596;2022-11-13T06:41:47;4.90;99.90
19522;DHT22;9905;52.126;5.596;2022-11-13T06:44:15;4.80;99.90
19522;DHT22;9905;52.126;5.596;2022-11-13T06:46:42;4.80;99.90
19522;DHT22;9905;52.126;5.596;2022-11-13T06:49:08;4.80;99.90
19522;DHT22;9905;52.126;5.596;2022-11-13T06:51:35;4.80;99.90
19522;DHT22;9905;52.126;5.596;2022-11-13T06:54:02;4.80;99.90
19522;DHT22;9905;52.126;5.596;2022-11-13T06:56:29;4.80;99.90
19522;DHT22;9905;52.126;5.596;2022-11-13T06:58:55;4.80;99.90
19522;DHT22;9905;52.126;5.596;2022-11-13T07:01:24;4.70;99.90
19522;DHT22;9905;52.126;5.596;2022-11-13T07:03:51;4.70;99.90
19522;DHT22;9905;52.126;5.596;2022-11-13T07:06:20;4.70;99.90
19522;DHT22;9905;52.126;5.596;2022-11-13T07:08:47;4.70;99.90
19522;DHT22;9905;52.126;5.596;2022-11-13T07:11:16;4.70;99.90
19522;DHT22;9905;52.126;5.596;2022-11-13T07:13:44;4.60;99.90
19522;DHT22;9905;52.126;5.596;2022-11-13T07:16:12;4.70;99.90
19522;DHT22;9905;52.126;5.596;2022-11-13T07:18:40;4.70;99.90
19522;DHT22;9905;52.126;5.596;2022-11-13T07:21:09;4.70;99.90
19522;DHT22;9905;52.126;5.596;2022-11-13T07:23:37;4.70;99.90
19522;DHT22;9905;52.126;5.596;2022-11-13T07:26:07;4.70;99.90
19522;DHT22;9905;52.126;5.596;2022-11-13T07:28:34;4.70;99.90
19522;DHT22;9905;52.126;5.596;2022-11-13T07:31:01;4.70;99.90
19522;DHT22;9905;52.126;5.596;2022-11-13T07:33:28;4.70;99.90
19522;DHT22;9905;52.126;5.596;2022-11-13T07:35:56;4.70;99.90
19522;DHT22;9905;52.126;5.596;2022-11-13T07:38:23;4.70;99.90
19522;DHT22;9905;52.126;5.596;2022-11-13T07:40:50;4.80;99.90
19522;DHT22;9905;52.126;5.596;2022-11-13T07:43:17;4.80;99.90
19522;DHT22;9905;52.126;5.596;2022-11-13T07:45:44;4.80;99.90
19522;DHT22;9905;52.126;5.596;2022-11-13T07:48:10;4.80;99.90
19522;DHT22;9905;52.126;5.596;2022-11-13T07:50:37;4.80;99.90
19522;DHT22;9905;52.126;5.596;2022-11-13T07:53:07;4.80;99.90
19522;DHT22;9905;52.126;5.596;2022-11-13T07:55:34;4.90;99.90
19522;DHT22;9905;52.126;5.596;2022-11-13T07:58:02;4.90;99.90
19522;DHT22;9905;52.126;5.596;2022-11-13T08:00:30;4.90;99.90
19522;DHT22;9905;52.126;5.596;2022-11-13T08:02:57;4.90;99.90
19522;DHT22;9905;52.126;5.596;2022-11-13T08:05:26;4.90;99.90
19522;DHT22;9905;52.126;5.596;2022-11-13T08:07:52;5.00;99.90
19522;DHT22;9905;52.126;5.596;2022-11-13T08:10:20;5.00;99.90
19522;DHT22;9905;52.126;5.596;2022-11-13T08:12:47;5.00;99.90
19522;DHT22;9905;52.126;5.596;2022-11-13T08:15:14;5.10;99.90
19522;DHT22;9905;52.126;5.596;2022-11-13T08:17:40;5.20;99.90
19522;DHT22;9905;52.126;5.596;2022-11-13T08:20:08;5.30;99.90
19522;DHT22;9905;52.126;5.596;2022-11-13T08:22:35;5.40;99.90
19522;DHT22;9905;52.126;5.596;2022-11-13T08:25:02;5.50;99.90
19522;DHT22;9905;52.126;5.596;2022-11-13T08:27:30;5.70;99.90
19522;DHT22;9905;52.126;5.596;2022-11-13T08:29:57;5.90;99.90
19522;DHT22;9905;52.126;5.596;2022-11-13T08:32:23;6.10;99.90
19522;DHT22;9905;52.126;5.596;2022-11-13T08:34:50;6.20;99.90
19522;DHT22;9905;52.126;5.596;2022-11-13T08:37:17;6.50;99.90
19522;DHT22;9905;52.126;5.596;2022-11-13T08:39:44;6.60;99.90
19522;DHT22;9905;52.126;5.596;2022-11-13T08:42:10;6.80;99.90
19522;DHT22;9905;52.126;5.596;2022-11-13T08:44:38;7.00;99.90
19522;DHT22;9905;52.126;5.596;2022-11-13T08:47:05;7.10;99.90
19522;DHT22;9905;52.126;5.596;2022-11-13T08:49:32;7.20;99.90
19522;DHT22;9905;52.126;5.596;2022-11-13T08:51:59;7.20;99.90
19522;DHT22;9905;52.126;5.596;2022-11-13T08:54:26;7.30;99.90
19522;DHT22;9905;52.126;5.596;2022-11-13T08:56:52;7.30;99.90
19522;DHT22;9905;52.126;5.596;2022-11-13T08:59:19;7.40;99.90
19522;DHT22;9905;52.126;5.596;2022-11-13T09:01:49;7.40;99.90
19522;DHT22;9905;52.126;5.596;2022-11-13T09:04:22;7.50;99.90
19522;DHT22;9905;52.126;5.596;2022-11-13T09:06:49;7.70;99.90
19522;DHT22;9905;52.126;5.596;2022-11-13T09:09:16;7.80;99.90
19522;DHT22;9905;52.126;5.596;2022-11-13T09:11:42;8.00;99.90
19522;DHT22;9905;52.126;5.596;2022-11-13T09:14:09;8.20;99.90
19522;DHT22;9905;52.126;5.596;2022-11-13T09:16:36;8.40;99.90
19522;DHT22;9905;52.126;5.596;2022-11-13T09:19:04;8.60;99.90
19522;DHT22;9905;52.126;5.596;2022-11-13T09:21:31;8.70;99.90
19522;DHT22;9905;52.126;5.596;2022-11-13T09:23:57;8.80;99.90
19522;DHT22;9905;52.126;5.596;2022-11-13T09:26:24;8.90;99.90
19522;DHT22;9905;52.126;5.596;2022-11-13T09:28:51;9.00;99.90
19522;DHT22;9905;52.126;5.596;2022-11-13T09:31:17;9.10;99.90
19522;DHT22;9905;52.126;5.596;2022-11-13T09:33:44;9.20;99.90
19522;DHT22;9905;52.126;5.596;2022-11-13T09:36:14;9.20;99.90
19522;DHT22;9905;52.126;5.596;2022-11-13T09:38:41;9.30;99.90
19522;DHT22;9905;52.126;5.596;2022-11-13T09:41:10;9.30;99.90
19522;DHT22;9905;52.126;5.596;2022-11-13T09:43:39;9.40;99.90
19522;DHT22;9905;52.126;5.596;2022-11-13T09:46:10;9.50;99.90
19522;DHT22;9905;52.126;5.596;2022-11-13T09:48:43;9.50;99.90
19522;DHT22;9905;52.126;5.596;2022-11-13T09:51:16;9.60;99.90
19522;DHT22;9905;52.126;5.596;2022-11-13T09:53:44;9.70;99.90
19522;DHT22;9905;52.126;5.596;2022-11-13T09:56:27;9.70;99.90
19522;DHT22;9905;52.126;5.596;2022-11-13T09:59:00;9.80;99.90
19522;DHT22;9905;52.126;5.596;2022-11-13T10:01:45;9.90;99.90
19522;DHT22;9905;52.126;5.596;2022-11-13T10:04:14;9.90;99.90
19522;DHT22;9905;52.126;5.596;2022-11-13T10:06:59;10.00;99.90
19522;DHT22;9905;52.126;5.596;2022-11-13T10:09:35;10.10;99.90
19522;DHT22;9905;52.126;5.596;2022-11-13T10:12:05;10.20;99.90
19522;DHT22;9905;52.126;5.596;2022-11-13T10:14:36;10.30;99.90
19522;DHT22;9905;52.126;5.596;2022-11-13T10:17:10;10.40;99.90
19522;DHT22;9905;52.126;5.596;2022-11-13T10:19:52;10.60;99.90
19522;DHT22;9905;52.126;5.596;2022-11-13T10:22:26;10.80;99.90
19522;DHT22;9905;52.126;5.596;2022-11-13T10:24:59;10.90;99.90
19522;DHT22;9905;52.126;5.596;2022-11-13T10:27:27;11.00;99.90
19522;DHT22;9905;52.126;5.596;2022-11-13T10:29:54;11.20;99.90
19522;DHT22;9905;52.126;5.596;2022-11-13T10:32:23;11.40;99.90
19522;DHT22;9905;52.126;5.596;2022-11-13T10:34:55;11.40;99.90
19522;DHT22;9905;52.126;5.596;2022-11-13T10:37:44;11.60;99.90
19522;DHT22;9905;52.126;5.596;2022-11-13T10:40:23;11.70;99.90
19522;DHT22;9905;52.126;5.596;2022-11-13T10:42:50;11.80;99.90
19522;DHT22;9905;52.126;5.596;2022-11-13T10:45:20;11.90;99.90
19522;DHT22;9905;52.126;5.596;2022-11-13T10:47:49;12.10;99.90
19522;DHT22;9905;52.126;5.596;2022-11-13T10:50:21;12.10;99.90
19522;DHT22;9905;52.126;5.596;2022-11-13T10:52:52;12.20;99.90
19522;DHT22;9905;52.126;5.596;2022-11-13T10:55:26;12.30;99.90
19522;DHT22;9905;52.126;5.596;2022-11-13T10:57:58;12.40;99.90
19522;DHT22;9905;52.126;5.596;2022-11-13T11:00:30;12.60;99.90
19522;DHT22;9905;52.126;5.596;2022-11-13T11:02:57;12.60;99.90
19522;DHT22;9905;52.126;5.596;2022-11-13T11:05:26;12.80;99.90
19522;DHT22;9905;52.126;5.596;2022-11-13T11:07:56;12.90;99.90
19522;DHT22;9905;52.126;5.596;2022-11-13T11:10:30;13.00;99.90
19522;DHT22;9905;52.126;5.596;2022-11-13T11:13:02;13.10;99.90
19522;DHT22;9905;52.126;5.596;2022-11-13T11:15:36;13.20;99.90
19522;DHT22;9905;52.126;5.596;2022-11-13T11:18:10;13.40;99.90
19522;DHT22;9905;52.126;5.596;2022-11-13T11:20:43;13.50;99.90
19522;DHT22;9905;52.126;5.596;2022-11-13T11:23:30;13.60;99.90
19522;DHT22;9905;52.126;5.596;2022-11-13T11:25:59;13.60;99.90
19522;DHT22;9905;52.126;5.596;2022-11-13T11:28:33;13.70;99.90
19522;DHT22;9905;52.126;5.596;2022-11-13T11:31:09;13.80;99.90
19522;DHT22;9905;52.126;5.596;2022-11-13T11:33:46;13.90;99.90
19522;DHT22;9905;52.126;5.596;2022-11-13T11:36:19;14.00;99.90
19522;DHT22;9905;52.126;5.596;2022-11-13T11:38:53;14.10;99.90
19522;DHT22;9905;52.126;5.596;2022-11-13T11:41:26;14.20;99.90
19522;DHT22;9905;52.126;5.596;2022-11-13T11:43:59;14.30;99.90
19522;DHT22;9905;52.126;5.596;2022-11-13T11:46:29;14.40;99.90
19522;DHT22;9905;52.126;5.596;2022-11-13T11:48:58;14.50;99.90
19522;DHT22;9905;52.126;5.596;2022-11-13T11:51:30;14.60;99.90
19522;DHT22;9905;52.126;5.596;2022-11-13T11:54:07;14.70;99.90
19522;DHT22;9905;52.126;5.596;2022-11-13T11:56:39;14.80;99.90
19522;DHT22;9905;52.126;5.596;2022-11-13T11:59:15;14.80;99.90
19522;DHT22;9905;52.126;5.596;2022-11-13T12:01:56;14.90;99.90
19522;DHT22;9905;52.126;5.596;2022-11-13T12:04:36;15.00;99.90
19522;DHT22;9905;52.126;5.596;2022-11-13T12:07:15;15.10;99.90
19522;DHT22;9905;52.126;5.596;2022-11-13T12:09:55;15.20;99.90
19522;DHT22;9905;52.126;5.596;2022-11-13T12:12:36;15.30;99.90
19522;DHT22;9905;52.126;5.596;2022-11-13T12:15:09;15.40;99.90
19522;DHT22;9905;52.126;5.596;2022-11-13T12:17:47;15.60;99.90
19522;DHT22;9905;52.126;5.596;2022-11-13T12:20:24;15.60;99.90
19522;DHT22;9905;52.126;5.596;2022-11-13T12:22:56;15.70;99.90
19522;DHT22;9905;52.126;5.596;2022-11-13T12:25:34;15.80;99.90
19522;DHT22;9905;52.126;5.596;2022-11-13T12:28:11;15.80;99.90
19522;DHT22;9905;52.126;5.596;2022-11-13T12:30:45;15.80;99.90
19522;DHT22;9905;52.126;5.596;2022-11-13T12:33:22;15.90;99.90
19522;DHT22;9905;52.126;5.596;2022-11-13T12:35:53;15.90;99.90
19522;DHT22;9905;52.126;5.596;2022-11-13T12:38:29;16.00;99.90
19522;DHT22;9905;52.126;5.596;2022-11-13T12:41:03;16.00;99.90
19522;DHT22;9905;52.126;5.596;2022-11-13T12:43:56;16.10;99.90
19522;DHT22;9905;52.126;5.596;2022-11-13T12:46:33;16.20;99.90
19522;DHT22;9905;52.126;5.596;2022-11-13T12:49:00;16.40;99.90
19522;DHT22;9905;52.126;5.596;2022-11-13T12:51:37;16.40;99.90
19522;DHT22;9905;52.126;5.596;2022-11-13T12:54:04;16.50;99.90
19522;DHT22;9905;52.126;5.596;2022-11-13T12:56:33;16.60;99.90
19522;DHT22;9905;52.126;5.596;2022-11-13T12:59:02;16.60;99.90
19522;DHT22;9905;52.126;5.596;2022-11-13T13:01:33;16.70;99.90
19522;DHT22;9905;52.126;5.596;2022-11-13T13:04:27;16.70;99.90
19522;DHT22;9905;52.126;5.596;2022-11-13T13:07:04;16.80;99.90
19522;DHT22;9905;52.126;5.596;2022-11-13T13:09:48;16.80;99.90
19522;DHT22;9905;52.126;5.596;2022-11-13T13:12:26;16.90;99.90
19522;DHT22;9905;52.126;5.596;2022-11-13T13:17:47;17.00;99.90
19522;DHT22;9905;52.126;5.596;2022-11-13T13:20:33;17.10;99.90
19522;DHT22;9905;52.126;5.596;2022-11-13T13:23:00;17.10;99.90
19522;DHT22;9905;52.126;5.596;2022-11-13T13:25:29;17.10;99.90
19522;DHT22;9905;52.126;5.596;2022-11-13T13:27:59;17.10;99.90
19522;DHT22;9905;52.126;5.596;2022-11-13T13:30:27;17.10;99.90
19522;DHT22;9905;52.126;5.596;2022-11-13T13:33:05;17.00;99.90
19522;DHT22;9905;52.126;5.596;2022-11-13T13:35:41;16.90;99.90
19522;DHT22;9905;52.126;5.596;2022-11-13T13:38:17;16.90;99.90
19522;DHT22;9905;52.126;5.596;2022-11-13T13:40:57;16.90;99.90
19522;DHT22;9905;52.126;5.596;2022-11-13T13:43:35;16.90;99.90
19522;DHT22;9905;52.126;5.596;2022-11-13T13:46:12;16.80;99.90
19522;DHT22;9905;52.126;5.596;2022-11-13T13:48:41;16.90;99.90
19522;DHT22;9905;52.126;5.596;2022-11-13T13:51:15;16.90;99.90
19522;DHT22;9905;52.126;5.596;2022-11-13T13:53:43;17.00;99.90
19522;DHT22;9905;52.126;5.596;2022-11-13T13:56:11;17.00;99.90
19522;DHT22;9905;52.126;5.596;2022-11-13T13:58:40;17.00;99.90
19522;DHT22;9905;52.126;5.596;2022-11-13T14:01:12;17.00;99.90
19522;DHT22;9905;52.126;5.596;2022-11-13T14:03:39;17.00;99.90
19522;DHT22;9905;52.126;5.596;2022-11-13T14:06:18;17.10;99.90
19522;DHT22;9905;52.126;5.596;2022-11-13T14:08:45;17.00;99.90
19522;DHT22;9905;52.126;5.596;2022-11-13T14:11:17;17.00;99.90
19522;DHT22;9905;52.126;5.596;2022-11-13T14:13:46;16.90;99.90
19522;DHT22;9905;52.126;5.596;2022-11-13T14:16:12;16.80;99.90
19522;DHT22;9905;52.126;5.596;2022-11-13T14:18:39;16.80;99.90
19522;DHT22;9905;52.126;5.596;2022-11-13T14:21:10;16.70;99.90
19522;DHT22;9905;52.126;5.596;2022-11-13T14:23:42;16.60;99.90
19522;DHT22;9905;52.126;5.596;2022-11-13T14:26:10;16.50;99.90
19522;DHT22;9905;52.126;5.596;2022-11-13T14:28:48;16.60;99.90
19522;DHT22;9905;52.126;5.596;2022-11-13T14:31:17;16.50;99.90
19522;DHT22;9905;52.126;5.596;2022-11-13T14:33:47;16.40;99.90
19522;DHT22;9905;52.126;5.596;2022-11-13T14:36:14;16.40;99.90
19522;DHT22;9905;52.126;5.596;2022-11-13T14:38:43;16.30;99.90
19522;DHT22;9905;52.126;5.596;2022-11-13T14:41:20;16.20;99.90
19522;DHT22;9905;52.126;5.596;2022-11-13T14:43:50;16.10;99.90
19522;DHT22;9905;52.126;5.596;2022-11-13T14:46:27;16.00;99.90
19522;DHT22;9905;52.126;5.596;2022-11-13T14:48:55;16.00;99.90
19522;DHT22;9905;52.126;5.596;2022-11-13T14:51:23;15.90;99.90
19522;DHT22;9905;52.126;5.596;2022-11-13T14:53:58;15.80;99.90
19522;DHT22;9905;52.126;5.596;2022-11-13T14:56:33;15.70;99.90
19522;DHT22;9905;52.126;5.596;2022-11-13T14:59:10;15.50;99.90
19522;DHT22;9905;52.126;5.596;2022-11-13T15:01:37;15.50;99.90
19522;DHT22;9905;52.126;5.596;2022-11-13T15:04:04;15.30;99.90
19522;DHT22;9905;52.126;5.596;2022-11-13T15:06:37;15.20;99.90
19522;DHT22;9905;52.126;5.596;2022-11-13T15:09:05;15.10;99.90
19522;DHT22;9905;52.126;5.596;2022-11-13T15:11:36;15.00;99.90
19522;DHT22;9905;52.126;5.596;2022-11-13T15:14:10;14.90;99.90
19522;DHT22;9905;52.126;5.596;2022-11-13T15:16:37;14.80;99.90
19522;DHT22;9905;52.126;5.596;2022-11-13T15:19:06;14.70;99.90
19522;DHT22;9905;52.126;5.596;2022-11-13T15:21:34;14.50;99.90
19522;DHT22;9905;52.126;5.596;2022-11-13T15:24:01;14.40;99.90
19522;DHT22;9905;52.126;5.596;2022-11-13T15:26:28;14.30;99.90
19522;DHT22;9905;52.126;5.596;2022-11-13T15:28:55;14.20;99.90
19522;DHT22;9905;52.126;5.596;2022-11-13T15:31:27;14.10;99.90
19522;DHT22;9905;52.126;5.596;2022-11-13T15:33:54;14.10;99.90
19522;DHT22;9905;52.126;5.596;2022-11-13T15:36:21;14.00;99.90
19522;DHT22;9905;52.126;5.596;2022-11-13T15:38:48;14.00;99.90
19522;DHT22;9905;52.126;5.596;2022-11-13T15:41:17;13.90;99.90
19522;DHT22;9905;52.126;5.596;2022-11-13T15:43:46;13.90;99.90
19522;DHT22;9905;52.126;5.596;2022-11-13T15:46:14;13.80;99.90
19522;DHT22;9905;52.126;5.596;2022-11-13T15:48:44;13.70;99.90
19522;DHT22;9905;52.126;5.596;2022-11-13T15:51:15;13.60;99.90
19522;DHT22;9905;52.126;5.596;2022-11-13T15:53:44;13.50;99.90
19522;DHT22;9905;52.126;5.596;2022-11-13T15:56:11;13.30;99.90
19522;DHT22;9905;52.126;5.596;2022-11-13T15:58:38;13.20;99.90
19522;DHT22;9905;52.126;5.596;2022-11-13T16:01:04;13.10;99.90
19522;DHT22;9905;52.126;5.596;2022-11-13T16:03:33;13.00;99.90
19522;DHT22;9905;52.126;5.596;2022-11-13T16:06:08;13.00;99.90
19522;DHT22;9905;52.126;5.596;2022-11-13T16:08:36;12.90;99.90
19522;DHT22;9905;52.126;5.596;2022-11-13T16:11:03;12.80;99.90